YHR weather

Chevery Airport
Chevery, Quebec, Canada

Public forecast

Using degrees Celsius for public forecast. Weather courtesy of forecast.io.

Closest aviation weather report (METAR) to Chevery Airport

Closest report is Natashquan Airport, 84.2 nm (155.9 km) W. Retrieved 2019/11/18 12:00 UTC (41 minutes ago):

CYNA 181200Z AUTO 32004KT 320V020 9SM CLR M10/M12 A3025 RMK SLP247

Closest aviation forecast (TAF) to Chevery Airport

Closest forecast is Natashquan Airport, 84.2 nm (155.9 km) W. Retrieved 2019/11/18 14:00 UTC (0 seconds ago):

TAF CYNA 181338Z 1814/1902 VRB03KT P6SM SKC BECMG 1822/1824 06006KT RMK FCST BASED ON AUTO OBS NXT FCST BY 182000Z